sensor_id;sensor_type;location;lat;lon;timestamp;temperature;humidity
21189;DHT22;39071;52.420;20.896;2023-02-01T00:01:18;3.70;99.90
21189;DHT22;39071;52.420;20.896;2023-02-01T00:03:43;3.80;99.90
21189;DHT22;39071;52.420;20.896;2023-02-01T00:06:09;3.80;99.90
21189;DHT22;39071;52.420;20.896;2023-02-01T00:08:35;3.80;99.90
21189;DHT22;39071;52.420;20.896;2023-02-01T00:11:08;3.80;99.90
21189;DHT22;39071;52.420;20.896;2023-02-01T00:13:39;3.80;99.90
21189;DHT22;39071;52.420;20.896;2023-02-01T00:16:08;3.90;99.90
21189;DHT22;39071;52.420;20.896;2023-02-01T00:18:34;3.90;99.90
21189;DHT22;39071;52.420;20.896;2023-02-01T00:21:00;3.90;99.90
21189;DHT22;39071;52.420;20.896;2023-02-01T00:23:26;3.90;99.90
21189;DHT22;39071;52.420;20.896;2023-02-01T00:25:52;3.80;99.90
21189;DHT22;39071;52.420;20.896;2023-02-01T00:28:18;3.90;99.90
21189;DHT22;39071;52.420;20.896;2023-02-01T00:30:43;3.90;99.90
21189;DHT22;39071;52.420;20.896;2023-02-01T00:33:09;3.90;99.90
21189;DHT22;39071;52.420;20.896;2023-02-01T00:35:36;3.90;99.90
21189;DHT22;39071;52.420;20.896;2023-02-01T00:38:02;4.00;99.90
21189;DHT22;39071;52.420;20.896;2023-02-01T00:40:27;3.90;99.90
21189;DHT22;39071;52.420;20.896;2023-02-01T00:42:53;3.90;99.90
21189;DHT22;39071;52.420;20.896;2023-02-01T00:45:19;3.90;99.90
21189;DHT22;39071;52.420;20.896;2023-02-01T00:47:45;3.80;99.90
21189;DHT22;39071;52.420;20.896;2023-02-01T00:50:11;3.90;99.90
21189;DHT22;39071;52.420;20.896;2023-02-01T00:52:36;3.90;99.90
21189;DHT22;39071;52.420;20.896;2023-02-01T00:55:02;3.90;99.90
21189;DHT22;39071;52.420;20.896;2023-02-01T00:57:28;3.80;99.90
21189;DHT22;39071;52.420;20.896;2023-02-01T00:59:54;3.70;99.90
21189;DHT22;39071;52.420;20.896;2023-02-01T01:02:20;3.70;99.90
21189;DHT22;39071;52.420;20.896;2023-02-01T01:04:45;3.80;99.90
21189;DHT22;39071;52.420;20.896;2023-02-01T01:07:11;3.70;99.90
21189;DHT22;39071;52.420;20.896;2023-02-01T01:09:37;3.60;99.90
21189;DHT22;39071;52.420;20.896;2023-02-01T01:12:02;3.60;99.90
21189;DHT22;39071;52.420;20.896;2023-02-01T01:14:29;3.60;99.90
21189;DHT22;39071;52.420;20.896;2023-02-01T01:16:55;3.70;99.90
21189;DHT22;39071;52.420;20.896;2023-02-01T01:19:21;3.60;99.90
21189;DHT22;39071;52.420;20.896;2023-02-01T01:21:47;3.60;99.90
21189;DHT22;39071;52.420;20.896;2023-02-01T01:24:12;3.70;99.90
21189;DHT22;39071;52.420;20.896;2023-02-01T01:26:38;3.80;99.90
21189;DHT22;39071;52.420;20.896;2023-02-01T01:29:04;3.80;99.90
21189;DHT22;39071;52.420;20.896;2023-02-01T01:31:30;3.80;99.90
21189;DHT22;39071;52.420;20.896;2023-02-01T01:33:58;3.80;99.90
21189;DHT22;39071;52.420;20.896;2023-02-01T01:36:25;3.70;99.90
21189;DHT22;39071;52.420;20.896;2023-02-01T01:38:51;3.70;99.90
21189;DHT22;39071;52.420;20.896;2023-02-01T01:41:21;3.70;99.90
21189;DHT22;39071;52.420;20.896;2023-02-01T01:46:20;3.60;99.90
21189;DHT22;39071;52.420;20.896;2023-02-01T01:48:53;3.70;99.90
21189;DHT22;39071;52.420;20.896;2023-02-01T01:51:21;3.70;99.90
21189;DHT22;39071;52.420;20.896;2023-02-01T01:56:34;3.60;99.90
21189;DHT22;39071;52.420;20.896;2023-02-01T01:59:01;3.60;99.90
21189;DHT22;39071;52.420;20.896;2023-02-01T02:01:27;3.50;99.90
21189;DHT22;39071;52.420;20.896;2023-02-01T02:03:53;3.50;99.90
21189;DHT22;39071;52.420;20.896;2023-02-01T02:08:52;3.50;99.90
21189;DHT22;39071;52.420;20.896;2023-02-01T02:11:17;3.40;99.90
21189;DHT22;39071;52.420;20.896;2023-02-01T02:13:47;3.40;99.90
21189;DHT22;39071;52.420;20.896;2023-02-01T02:27:10;3.50;99.90
21189;DHT22;39071;52.420;20.896;2023-02-01T02:30:02;3.60;99.90
21189;DHT22;39071;52.420;20.896;2023-02-01T02:35:41;3.80;99.90
21189;DHT22;39071;52.420;20.896;2023-02-01T02:41:10;3.60;99.90
21189;DHT22;39071;52.420;20.896;2023-02-01T02:43:59;3.50;99.90
21189;DHT22;39071;52.420;20.896;2023-02-01T02:46:49;3.60;99.90
21189;DHT22;39071;52.420;20.896;2023-02-01T02:49:44;3.70;99.90
21189;DHT22;39071;52.420;20.896;2023-02-01T02:52:39;3.80;99.90
21189;DHT22;39071;52.420;20.896;2023-02-01T02:55:27;3.70;99.90
21189;DHT22;39071;52.420;20.896;2023-02-01T02:57:55;3.70;99.90
21189;DHT22;39071;52.420;20.896;2023-02-01T03:00:40;3.60;99.90
21189;DHT22;39071;52.420;20.896;2023-02-01T03:03:25;2.30;99.90
21189;DHT22;39071;52.420;20.896;2023-02-01T03:06:15;3.80;99.80
21189;DHT22;39071;52.420;20.896;2023-02-01T03:08:42;3.70;1.00
21189;DHT22;39071;52.420;20.896;2023-02-01T03:11:13;3.70;1.00
21189;DHT22;39071;52.420;20.896;2023-02-01T03:14:00;3.70;99.90
21189;DHT22;39071;52.420;20.896;2023-02-01T03:16:33;3.70;1.00
21189;DHT22;39071;52.420;20.896;2023-02-01T03:19:06;3.60;1.00
21189;DHT22;39071;52.420;20.896;2023-02-01T03:21:41;3.60;30.40
21189;DHT22;39071;52.420;20.896;2023-02-01T03:24:21;3.50;1.00
21189;DHT22;39071;52.420;20.896;2023-02-01T03:26:55;3.50;99.90
21189;DHT22;39071;52.420;20.896;2023-02-01T03:29:37;3.60;1.00
21189;DHT22;39071;52.420;20.896;2023-02-01T03:32:04;3.60;1.00
21189;DHT22;39071;52.420;20.896;2023-02-01T03:34:30;3.60;99.90
21189;DHT22;39071;52.420;20.896;2023-02-01T03:37:09;3.70;1.00
21189;DHT22;39071;52.420;20.896;2023-02-01T03:39:47;3.60;99.90
21189;DHT22;39071;52.420;20.896;2023-02-01T03:42:19;3.50;1.00
21189;DHT22;39071;52.420;20.896;2023-02-01T03:45:16;3.40;99.90
21189;DHT22;39071;52.420;20.896;2023-02-01T03:47:47;3.50;99.90
21189;DHT22;39071;52.420;20.896;2023-02-01T03:50:18;3.50;1.00
21189;DHT22;39071;52.420;20.896;2023-02-01T03:52:58;3.50;99.90
21189;DHT22;39071;52.420;20.896;2023-02-01T03:55:25;3.60;99.90
21189;DHT22;39071;52.420;20.896;2023-02-01T03:58:13;3.60;99.90
21189;DHT22;39071;52.420;20.896;2023-02-01T04:00:40;3.50;1.00
21189;DHT22;39071;52.420;20.896;2023-02-01T04:03:07;3.60;1.00
21189;DHT22;39071;52.420;20.896;2023-02-01T04:05:33;3.60;99.90
21189;DHT22;39071;52.420;20.896;2023-02-01T04:07:59;3.60;1.00
21189;DHT22;39071;52.420;20.896;2023-02-01T04:10:25;3.50;27.10
21189;DHT22;39071;52.420;20.896;2023-02-01T04:12:51;3.50;99.90
21189;DHT22;39071;52.420;20.896;2023-02-01T04:15:17;3.50;1.00
21189;DHT22;39071;52.420;20.896;2023-02-01T04:17:43;3.50;1.00
21189;DHT22;39071;52.420;20.896;2023-02-01T04:20:09;3.60;1.00
21189;DHT22;39071;52.420;20.896;2023-02-01T04:22:35;3.70;1.00
21189;DHT22;39071;52.420;20.896;2023-02-01T04:25:01;3.70;1.00
21189;DHT22;39071;52.420;20.896;2023-02-01T04:27:27;3.70;1.00
21189;DHT22;39071;52.420;20.896;2023-02-01T04:29:53;3.60;99.90
21189;DHT22;39071;52.420;20.896;2023-02-01T04:32:19;3.60;99.90
21189;DHT22;39071;52.420;20.896;2023-02-01T04:34:48;3.70;59.40
21189;DHT22;39071;52.420;20.896;2023-02-01T04:37:13;3.60;1.00
21189;DHT22;39071;52.420;20.896;2023-02-01T04:39:42;3.70;1.00
21189;DHT22;39071;52.420;20.896;2023-02-01T04:42:08;3.80;99.90
21189;DHT22;39071;52.420;20.896;2023-02-01T04:44:34;3.80;1.00
21189;DHT22;39071;52.420;20.896;2023-02-01T04:47:02;3.80;1.00
21189;DHT22;39071;52.420;20.896;2023-02-01T04:49:28;3.80;1.00
21189;DHT22;39071;52.420;20.896;2023-02-01T04:51:53;3.90;1.00
21189;DHT22;39071;52.420;20.896;2023-02-01T04:54:19;3.90;1.00
21189;DHT22;39071;52.420;20.896;2023-02-01T04:56:45;3.90;99.90
21189;DHT22;39071;52.420;20.896;2023-02-01T04:59:11;3.90;7.00
21189;DHT22;39071;52.420;20.896;2023-02-01T05:01:37;3.90;99.90
21189;DHT22;39071;52.420;20.896;2023-02-01T05:04:03;3.90;99.90
21189;DHT22;39071;52.420;20.896;2023-02-01T05:06:29;3.90;1.00
21189;DHT22;39071;52.420;20.896;2023-02-01T05:08:55;3.90;1.00
21189;DHT22;39071;52.420;20.896;2023-02-01T05:11:21;3.90;1.00
21189;DHT22;39071;52.420;20.896;2023-02-01T05:14:05;3.90;1.00
21189;DHT22;39071;52.420;20.896;2023-02-01T05:16:30;3.90;1.00
21189;DHT22;39071;52.420;20.896;2023-02-01T05:18:56;4.00;1.00
21189;DHT22;39071;52.420;20.896;2023-02-01T05:21:22;4.00;1.00
21189;DHT22;39071;52.420;20.896;2023-02-01T05:23:48;4.00;1.00
21189;DHT22;39071;52.420;20.896;2023-02-01T05:26:32;3.90;99.90
21189;DHT22;39071;52.420;20.896;2023-02-01T05:28:59;3.90;1.00
21189;DHT22;39071;52.420;20.896;2023-02-01T05:31:25;3.90;99.90
21189;DHT22;39071;52.420;20.896;2023-02-01T05:33:51;3.90;99.90
21189;DHT22;39071;52.420;20.896;2023-02-01T05:36:17;3.90;99.90
21189;DHT22;39071;52.420;20.896;2023-02-01T05:38:42;3.90;99.90
21189;DHT22;39071;52.420;20.896;2023-02-01T05:41:08;4.00;99.90
21189;DHT22;39071;52.420;20.896;2023-02-01T05:43:34;4.00;99.90
21189;DHT22;39071;52.420;20.896;2023-02-01T05:46:00;4.10;99.90
21189;DHT22;39071;52.420;20.896;2023-02-01T05:48:26;4.00;99.90
21189;DHT22;39071;52.420;20.896;2023-02-01T05:50:52;3.90;99.90
21189;DHT22;39071;52.420;20.896;2023-02-01T05:53:18;3.90;99.90
21189;DHT22;39071;52.420;20.896;2023-02-01T05:55:44;3.90;99.90
21189;DHT22;39071;52.420;20.896;2023-02-01T05:58:09;4.00;99.90
21189;DHT22;39071;52.420;20.896;2023-02-01T06:00:35;4.00;93.60
21189;DHT22;39071;52.420;20.896;2023-02-01T06:03:01;4.00;99.90
21189;DHT22;39071;52.420;20.896;2023-02-01T06:05:27;4.00;78.50
21189;DHT22;39071;52.420;20.896;2023-02-01T06:07:53;4.00;99.90
21189;DHT22;39071;52.420;20.896;2023-02-01T06:10:19;4.00;66.30
21189;DHT22;39071;52.420;20.896;2023-02-01T06:12:45;4.20;91.10
21189;DHT22;39071;52.420;20.896;2023-02-01T06:15:12;4.00;79.30
21189;DHT22;39071;52.420;20.896;2023-02-01T06:17:38;4.00;99.90
21189;DHT22;39071;52.420;20.896;2023-02-01T06:20:07;4.00;99.90
21189;DHT22;39071;52.420;20.896;2023-02-01T06:22:33;4.10;99.90
21189;DHT22;39071;52.420;20.896;2023-02-01T06:25:04;3.90;99.90
21189;DHT22;39071;52.420;20.896;2023-02-01T06:27:31;3.90;99.90
21189;DHT22;39071;52.420;20.896;2023-02-01T06:29:57;3.90;99.90
21189;DHT22;39071;52.420;20.896;2023-02-01T06:32:22;4.00;99.90
21189;DHT22;39071;52.420;20.896;2023-02-01T06:34:49;4.00;99.90
21189;DHT22;39071;52.420;20.896;2023-02-01T06:37:15;4.00;99.90
21189;DHT22;39071;52.420;20.896;2023-02-01T06:39:40;4.00;99.90
21189;DHT22;39071;52.420;20.896;2023-02-01T06:42:06;3.90;99.90
21189;DHT22;39071;52.420;20.896;2023-02-01T06:44:32;3.90;1.00
21189;DHT22;39071;52.420;20.896;2023-02-01T06:46:57;3.90;1.00
21189;DHT22;39071;52.420;20.896;2023-02-01T06:49:23;3.90;1.00
21189;DHT22;39071;52.420;20.896;2023-02-01T06:51:49;3.90;1.00
21189;DHT22;39071;52.420;20.896;2023-02-01T06:54:15;4.00;1.00
21189;DHT22;39071;52.420;20.896;2023-02-01T06:56:40;3.90;1.00
21189;DHT22;39071;52.420;20.896;2023-02-01T06:59:07;3.80;1.00
21189;DHT22;39071;52.420;20.896;2023-02-01T07:01:34;3.90;1.00
21189;DHT22;39071;52.420;20.896;2023-02-01T07:03:59;3.90;1.00
21189;DHT22;39071;52.420;20.896;2023-02-01T07:06:25;3.80;1.00
21189;DHT22;39071;52.420;20.896;2023-02-01T07:08:51;3.90;1.00
21189;DHT22;39071;52.420;20.896;2023-02-01T07:11:18;3.90;1.00
21189;DHT22;39071;52.420;20.896;2023-02-01T07:13:45;3.80;1.00
21189;DHT22;39071;52.420;20.896;2023-02-01T07:16:16;4.00;1.00
21189;DHT22;39071;52.420;20.896;2023-02-01T07:18:43;3.90;1.00
21189;DHT22;39071;52.420;20.896;2023-02-01T07:21:09;3.90;1.00
21189;DHT22;39071;52.420;20.896;2023-02-01T07:23:35;3.90;1.00
21189;DHT22;39071;52.420;20.896;2023-02-01T07:26:03;3.90;1.00
21189;DHT22;39071;52.420;20.896;2023-02-01T07:28:32;3.90;99.90
21189;DHT22;39071;52.420;20.896;2023-02-01T07:31:07;3.90;99.90
21189;DHT22;39071;52.420;20.896;2023-02-01T07:33:33;3.80;99.90
21189;DHT22;39071;52.420;20.896;2023-02-01T07:36:02;3.90;1.00
21189;DHT22;39071;52.420;20.896;2023-02-01T07:38:28;3.80;1.00
21189;DHT22;39071;52.420;20.896;2023-02-01T07:41:04;3.80;1.00
21189;DHT22;39071;52.420;20.896;2023-02-01T07:43:30;3.80;27.90
21189;DHT22;39071;52.420;20.896;2023-02-01T07:45:56;3.70;43.60
21189;DHT22;39071;52.420;20.896;2023-02-01T07:48:23;3.70;1.00
21189;DHT22;39071;52.420;20.896;2023-02-01T07:50:57;3.80;99.90
21189;DHT22;39071;52.420;20.896;2023-02-01T07:53:24;3.80;99.90
21189;DHT22;39071;52.420;20.896;2023-02-01T07:55:49;3.80;1.00
21189;DHT22;39071;52.420;20.896;2023-02-01T07:58:15;3.80;1.00
21189;DHT22;39071;52.420;20.896;2023-02-01T08:00:41;3.80;1.00
21189;DHT22;39071;52.420;20.896;2023-02-01T08:03:25;3.80;99.90
21189;DHT22;39071;52.420;20.896;2023-02-01T08:05:54;3.80;99.90
21189;DHT22;39071;52.420;20.896;2023-02-01T08:08:21;3.80;99.90
21189;DHT22;39071;52.420;20.896;2023-02-01T08:10:47;3.80;1.00
21189;DHT22;39071;52.420;20.896;2023-02-01T08:13:13;4.00;1.00
21189;DHT22;39071;52.420;20.896;2023-02-01T08:15:39;4.00;1.00
21189;DHT22;39071;52.420;20.896;2023-02-01T08:18:05;4.00;98.90
21189;DHT22;39071;52.420;20.896;2023-02-01T08:20:30;4.00;99.90
21189;DHT22;39071;52.420;20.896;2023-02-01T08:22:56;4.00;1.00
21189;DHT22;39071;52.420;20.896;2023-02-01T08:25:23;4.10;1.00
21189;DHT22;39071;52.420;20.896;2023-02-01T08:27:49;4.20;1.00
21189;DHT22;39071;52.420;20.896;2023-02-01T08:30:15;4.10;1.00
21189;DHT22;39071;52.420;20.896;2023-02-01T08:32:41;4.20;99.90
21189;DHT22;39071;52.420;20.896;2023-02-01T08:35:09;4.30;99.90
21189;DHT22;39071;52.420;20.896;2023-02-01T08:37:34;4.30;99.90
21189;DHT22;39071;52.420;20.896;2023-02-01T08:40:01;4.40;99.90
21189;DHT22;39071;52.420;20.896;2023-02-01T08:42:26;4.30;99.90
21189;DHT22;39071;52.420;20.896;2023-02-01T08:45:11;4.40;99.90
21189;DHT22;39071;52.420;20.896;2023-02-01T08:47:37;4.30;1.00
21189;DHT22;39071;52.420;20.896;2023-02-01T08:50:03;4.20;1.00
21189;DHT22;39071;52.420;20.896;2023-02-01T08:52:28;4.20;99.90
21189;DHT22;39071;52.420;20.896;2023-02-01T08:54:54;4.20;1.00
21189;DHT22;39071;52.420;20.896;2023-02-01T08:57:20;4.10;1.00
21189;DHT22;39071;52.420;20.896;2023-02-01T08:59:45;4.20;1.00
21189;DHT22;39071;52.420;20.896;2023-02-01T09:02:15;4.20;1.00
21189;DHT22;39071;52.420;20.896;2023-02-01T09:04:41;4.10;1.00
21189;DHT22;39071;52.420;20.896;2023-02-01T09:07:08;4.20;1.00
21189;DHT22;39071;52.420;20.896;2023-02-01T09:09:35;4.10;99.90
21189;DHT22;39071;52.420;20.896;2023-02-01T09:12:01;4.20;1.00
21189;DHT22;39071;52.420;20.896;2023-02-01T09:14:27;4.10;92.40
21189;DHT22;39071;52.420;20.896;2023-02-01T09:16:52;4.20;1.00
21189;DHT22;39071;52.420;20.896;2023-02-01T09:19:18;4.30;1.00
21189;DHT22;39071;52.420;20.896;2023-02-01T09:21:44;4.40;1.00
21189;DHT22;39071;52.420;20.896;2023-02-01T09:24:11;4.60;1.00
21189;DHT22;39071;52.420;20.896;2023-02-01T09:26:37;4.70;99.90
21189;DHT22;39071;52.420;20.896;2023-02-01T09:29:03;4.90;99.90
21189;DHT22;39071;52.420;20.896;2023-02-01T09:31:32;5.20;1.00
21189;DHT22;39071;52.420;20.896;2023-02-01T09:33:57;5.30;99.90
21189;DHT22;39071;52.420;20.896;2023-02-01T09:36:23;5.50;99.90
21189;DHT22;39071;52.420;20.896;2023-02-01T09:38:49;5.40;1.00
21189;DHT22;39071;52.420;20.896;2023-02-01T09:41:35;5.40;1.00
21189;DHT22;39071;52.420;20.896;2023-02-01T09:44:07;5.30;1.00
21189;DHT22;39071;52.420;20.896;2023-02-01T09:46:38;5.40;1.00
21189;DHT22;39071;52.420;20.896;2023-02-01T09:49:09;5.20;1.00
21189;DHT22;39071;52.420;20.896;2023-02-01T09:51:44;5.30;1.00
21189;DHT22;39071;52.420;20.896;2023-02-01T09:57:24;5.30;1.00
21189;DHT22;39071;52.420;20.896;2023-02-01T09:59:54;5.10;1.00
21189;DHT22;39071;52.420;20.896;2023-02-01T10:02:24;5.20;1.00
21189;DHT22;39071;52.420;20.896;2023-02-01T10:04:55;5.10;1.00
21189;DHT22;39071;52.420;20.896;2023-02-01T10:24:00;5.00;1.00
21189;DHT22;39071;52.420;20.896;2023-02-01T10:26:32;5.10;1.00
21189;DHT22;39071;52.420;20.896;2023-02-01T10:29:03;5.10;1.00
21189;DHT22;39071;52.420;20.896;2023-02-01T10:31:31;5.10;1.00
21189;DHT22;39071;52.420;20.896;2023-02-01T10:34:01;5.10;1.00
21189;DHT22;39071;52.420;20.896;2023-02-01T10:36:36;5.10;1.00
21189;DHT22;39071;52.420;20.896;2023-02-01T10:39:05;5.10;1.00
21189;DHT22;39071;52.420;20.896;2023-02-01T10:41:35;5.20;1.00
21189;DHT22;39071;52.420;20.896;2023-02-01T10:44:04;5.30;1.00
21189;DHT22;39071;52.420;20.896;2023-02-01T10:46:32;5.30;1.00
21189;DHT22;39071;52.420;20.896;2023-02-01T10:49:03;5.30;1.00
21189;DHT22;39071;52.420;20.896;2023-02-01T10:51:39;5.40;1.00
21189;DHT22;39071;52.420;20.896;2023-02-01T10:54:21;5.40;1.00
21189;DHT22;39071;52.420;20.896;2023-02-01T10:56:48;5.40;1.00
21189;DHT22;39071;52.420;20.896;2023-02-01T10:59:21;5.50;1.00
21189;DHT22;39071;52.420;20.896;2023-02-01T11:01:50;5.50;1.00
21189;DHT22;39071;52.420;20.896;2023-02-01T11:04:20;5.50;1.00
21189;DHT22;39071;52.420;20.896;2023-02-01T11:06:53;5.60;1.00
21189;DHT22;39071;52.420;20.896;2023-02-01T11:09:31;5.60;1.00
21189;DHT22;39071;52.420;20.896;2023-02-01T11:11:59;5.60;1.00
21189;DHT22;39071;52.420;20.896;2023-02-01T11:16:55;5.50;1.00
21189;DHT22;39071;52.420;20.896;2023-02-01T11:19:21;5.50;1.00
21189;DHT22;39071;52.420;20.896;2023-02-01T11:21:55;5.50;1.00
21189;DHT22;39071;52.420;20.896;2023-02-01T11:24:33;5.50;1.00
21189;DHT22;39071;52.420;20.896;2023-02-01T11:27:06;5.40;1.00
21189;DHT22;39071;52.420;20.896;2023-02-01T11:29:41;5.50;1.00
21189;DHT22;39071;52.420;20.896;2023-02-01T11:32:09;5.50;1.00
21189;DHT22;39071;52.420;20.896;2023-02-01T11:35:03;5.50;1.00
21189;DHT22;39071;52.420;20.896;2023-02-01T11:37:40;5.40;1.00
21189;DHT22;39071;52.420;20.896;2023-02-01T11:42:56;5.50;1.00
21189;DHT22;39071;52.420;20.896;2023-02-01T11:45:30;5.50;1.00
21189;DHT22;39071;52.420;20.896;2023-02-01T11:47:57;5.60;1.00
21189;DHT22;39071;52.420;20.896;2023-02-01T11:53:30;5.50;1.00
21189;DHT22;39071;52.420;20.896;2023-02-01T11:56:23;5.50;1.00
21189;DHT22;39071;52.420;20.896;2023-02-01T12:05:14;5.60;1.00
21189;DHT22;39071;52.420;20.896;2023-02-01T12:13:35;5.60;1.00
21189;DHT22;39071;52.420;20.896;2023-02-01T12:24:01;5.40;99.90
21189;DHT22;39071;52.420;20.896;2023-02-01T12:37:36;5.70;1.00
21189;DHT22;39071;52.420;20.896;2023-02-01T12:40:21;5.80;1.00
21189;DHT22;39071;52.420;20.896;2023-02-01T12:45:36;5.80;1.00
21189;DHT22;39071;52.420;20.896;2023-02-01T12:50:59;5.80;1.00
21189;DHT22;39071;52.420;20.896;2023-02-01T12:53:44;5.80;1.00
21189;DHT22;39071;52.420;20.896;2023-02-01T12:56:16;5.90;1.00
21189;DHT22;39071;52.420;20.896;2023-02-01T12:58:50;6.00;1.00
21189;DHT22;39071;52.420;20.896;2023-02-01T13:06:36;6.20;1.00
21189;DHT22;39071;52.420;20.896;2023-02-01T13:11:53;6.40;1.00
21189;DHT22;39071;52.420;20.896;2023-02-01T13:17:06;6.20;1.00
21189;DHT22;39071;52.420;20.896;2023-02-01T13:22:39;6.30;1.00
21189;DHT22;39071;52.420;20.896;2023-02-01T13:25:29;6.30;1.00
21189;DHT22;39071;52.420;20.896;2023-02-01T13:28:03;6.30;1.00
21189;DHT22;39071;52.420;20.896;2023-02-01T13:30:59;6.20;1.00
21189;DHT22;39071;52.420;20.896;2023-02-01T13:33:35;6.10;1.00
21189;DHT22;39071;52.420;20.896;2023-02-01T13:42:02;5.90;1.00
21189;DHT22;39071;52.420;20.896;2023-02-01T13:44:43;5.90;1.00
21189;DHT22;39071;52.420;20.896;2023-02-01T13:49:41;5.80;1.00
21189;DHT22;39071;52.420;20.896;2023-02-01T13:55:14;5.80;1.00
21189;DHT22;39071;52.420;20.896;2023-02-01T13:57:42;5.70;1.00
21189;DHT22;39071;52.420;20.896;2023-02-01T14:00:29;5.70;1.00
21189;DHT22;39071;52.420;20.896;2023-02-01T14:03:06;5.80;1.00
21189;DHT22;39071;52.420;20.896;2023-02-01T14:08:11;5.90;1.00
21189;DHT22;39071;52.420;20.896;2023-02-01T14:23:45;5.80;1.00
21189;DHT22;39071;52.420;20.896;2023-02-01T14:34:48;5.60;1.00
21189;DHT22;39071;52.420;20.896;2023-02-01T14:55:40;5.40;1.00
21189;DHT22;39071;52.420;20.896;2023-02-01T15:00:59;5.30;1.00
21189;DHT22;39071;52.420;20.896;2023-02-01T15:05:59;5.40;1.00
21189;DHT22;39071;52.420;20.896;2023-02-01T15:08:34;5.40;1.00
21189;DHT22;39071;52.420;20.896;2023-02-01T15:11:14;5.40;1.00
21189;DHT22;39071;52.420;20.896;2023-02-01T15:13:40;5.30;1.00
21189;DHT22;39071;52.420;20.896;2023-02-01T15:16:11;5.30;1.00
21189;DHT22;39071;52.420;20.896;2023-02-01T15:18:38;5.20;1.00
21189;DHT22;39071;52.420;20.896;2023-02-01T15:21:05;5.20;1.00
21189;DHT22;39071;52.420;20.896;2023-02-01T15:23:32;5.20;1.00
21189;DHT22;39071;52.420;20.896;2023-02-01T15:25:58;5.20;1.00
21189;DHT22;39071;52.420;20.896;2023-02-01T15:28:26;5.20;1.00
21189;DHT22;39071;52.420;20.896;2023-02-01T15:30:57;5.20;1.00
21189;DHT22;39071;52.420;20.896;2023-02-01T15:33:24;5.10;1.00
21189;DHT22;39071;52.420;20.896;2023-02-01T15:35:55;5.00;1.00
21189;DHT22;39071;52.420;20.896;2023-02-01T15:43:22;5.10;1.00
21189;DHT22;39071;52.420;20.896;2023-02-01T15:45:48;5.10;1.00
21189;DHT22;39071;52.420;20.896;2023-02-01T15:48:22;5.10;1.00
21189;DHT22;39071;52.420;20.896;2023-02-01T15:50:49;5.00;1.00
21189;DHT22;39071;52.420;20.896;2023-02-01T15:53:22;5.10;1.00
21189;DHT22;39071;52.420;20.896;2023-02-01T15:55:53;5.10;1.00
21189;DHT22;39071;52.420;20.896;2023-02-01T15:58:21;5.10;1.00
21189;DHT22;39071;52.420;20.896;2023-02-01T16:00:57;5.10;1.00
21189;DHT22;39071;52.420;20.896;2023-02-01T16:03:37;5.10;1.00
21189;DHT22;39071;52.420;20.896;2023-02-01T16:06:07;5.00;1.00
21189;DHT22;39071;52.420;20.896;2023-02-01T16:08:34;5.00;1.00
21189;DHT22;39071;52.420;20.896;2023-02-01T16:13:34;5.00;1.00
21189;DHT22;39071;52.420;20.896;2023-02-01T16:15:59;5.10;1.00
21189;DHT22;39071;52.420;20.896;2023-02-01T16:18:25;5.00;1.00
21189;DHT22;39071;52.420;20.896;2023-02-01T16:20:51;5.10;4.50
21189;DHT22;39071;52.420;20.896;2023-02-01T16:23:17;5.10;1.00
21189;DHT22;39071;52.420;20.896;2023-02-01T16:25:44;5.00;1.00
21189;DHT22;39071;52.420;20.896;2023-02-01T16:28:10;5.00;1.00
21189;DHT22;39071;52.420;20.896;2023-02-01T16:30:36;5.10;1.00
21189;DHT22;39071;52.420;20.896;2023-02-01T16:33:03;5.10;1.00
21189;DHT22;39071;52.420;20.896;2023-02-01T16:35:37;5.30;1.00
21189;DHT22;39071;52.420;20.896;2023-02-01T16:38:11;5.00;49.70
21189;DHT22;39071;52.420;20.896;2023-02-01T16:40:42;5.00;93.00
21189;DHT22;39071;52.420;20.896;2023-02-01T16:43:16;5.10;28.20
21189;DHT22;39071;52.420;20.896;2023-02-01T16:45:43;5.00;1.00
21189;DHT22;39071;52.420;20.896;2023-02-01T16:48:27;4.90;81.80
21189;DHT22;39071;52.420;20.896;2023-02-01T16:50:54;4.70;99.90
21189;DHT22;39071;52.420;20.896;2023-02-01T16:53:22;4.80;99.90
21189;DHT22;39071;52.420;20.896;2023-02-01T16:55:49;4.80;99.90
21189;DHT22;39071;52.420;20.896;2023-02-01T16:58:16;4.70;99.90
21189;DHT22;39071;52.420;20.896;2023-02-01T17:00:43;4.70;99.90
21189;DHT22;39071;52.420;20.896;2023-02-01T17:03:13;4.70;99.90
21189;DHT22;39071;52.420;20.896;2023-02-01T17:05:53;4.70;99.90
21189;DHT22;39071;52.420;20.896;2023-02-01T17:08:30;4.60;99.90
21189;DHT22;39071;52.420;20.896;2023-02-01T17:10:56;4.60;99.90
21189;DHT22;39071;52.420;20.896;2023-02-01T17:13:22;4.70;99.90
21189;DHT22;39071;52.420;20.896;2023-02-01T17:15:56;4.90;99.90
21189;DHT22;39071;52.420;20.896;2023-02-01T17:18:22;4.70;99.90
21189;DHT22;39071;52.420;20.896;2023-02-01T17:20:48;4.60;99.90
21189;DHT22;39071;52.420;20.896;2023-02-01T17:23:16;4.60;99.90
21189;DHT22;39071;52.420;20.896;2023-02-01T17:25:42;4.60;99.90
21189;DHT22;39071;52.420;20.896;2023-02-01T17:28:08;4.50;99.90
21189;DHT22;39071;52.420;20.896;2023-02-01T17:30:34;4.50;99.90
21189;DHT22;39071;52.420;20.896;2023-02-01T17:33:00;4.50;99.90
21189;DHT22;39071;52.420;20.896;2023-02-01T17:35:27;4.50;99.90
21189;DHT22;39071;52.420;20.896;2023-02-01T17:37:54;4.30;99.90
21189;DHT22;39071;52.420;20.896;2023-02-01T17:40:20;4.30;99.90
21189;DHT22;39071;52.420;20.896;2023-02-01T17:42:46;4.30;99.90
21189;DHT22;39071;52.420;20.896;2023-02-01T17:45:34;4.20;99.90
21189;DHT22;39071;52.420;20.896;2023-02-01T17:48:04;4.40;99.90
21189;DHT22;39071;52.420;20.896;2023-02-01T17:50:33;4.40;99.90
21189;DHT22;39071;52.420;20.896;2023-02-01T17:52:59;4.40;99.90
21189;DHT22;39071;52.420;20.896;2023-02-01T17:55:26;4.50;99.90
21189;DHT22;39071;52.420;20.896;2023-02-01T17:57:52;4.40;99.90
21189;DHT22;39071;52.420;20.896;2023-02-01T18:00:18;4.50;1.00
21189;DHT22;39071;52.420;20.896;2023-02-01T18:02:44;4.40;1.00
21189;DHT22;39071;52.420;20.896;2023-02-01T18:05:25;4.40;1.00
21189;DHT22;39071;52.420;20.896;2023-02-01T18:07:53;4.40;1.00
21189;DHT22;39071;52.420;20.896;2023-02-01T18:10:18;4.40;1.00
21189;DHT22;39071;52.420;20.896;2023-02-01T18:12:44;4.50;1.00
21189;DHT22;39071;52.420;20.896;2023-02-01T18:15:19;4.50;1.00
21189;DHT22;39071;52.420;20.896;2023-02-01T18:17:45;4.50;1.00
21189;DHT22;39071;52.420;20.896;2023-02-01T18:20:17;4.40;1.00
21189;DHT22;39071;52.420;20.896;2023-02-01T18:22:45;4.50;1.00
21189;DHT22;39071;52.420;20.896;2023-02-01T18:25:24;4.50;99.90
21189;DHT22;39071;52.420;20.896;2023-02-01T18:27:52;4.50;1.00
21189;DHT22;39071;52.420;20.896;2023-02-01T18:30:23;4.50;1.00
21189;DHT22;39071;52.420;20.896;2023-02-01T18:32:49;4.60;1.00
21189;DHT22;39071;52.420;20.896;2023-02-01T18:35:22;4.50;1.00
21189;DHT22;39071;52.420;20.896;2023-02-01T18:37:49;4.60;1.00
21189;DHT22;39071;52.420;20.896;2023-02-01T18:40:20;4.60;99.90
21189;DHT22;39071;52.420;20.896;2023-02-01T18:42:47;4.50;1.00
21189;DHT22;39071;52.420;20.896;2023-02-01T18:45:34;4.60;1.00